Time;durP1;ratioP1;P1;durP2;ratioP2;P2;SDS_P1;SDS_P2;PMS_P1;PMS_P2;Temp;Humidity;BMP_temperature;BMP_pressure;BME280_temperature;BME280_humidity;BME280_pressure;Samples;Min_cycle;Max_cycle;Signal;HPM_P1;HPM_P2
2022/09/24 00:01:23;;;;;;;;;;;;;;;21.00;31.40;98089.63;5054925;28;1906;-84
2022/09/24 00:03:52;;;;;;;;;;;;;;;20.89;31.70;98080.59;5035901;28;1487;-85
2022/09/24 00:06:18;;;;;;;;;;;;;;;20.64;32.11;98086.78;5038182;28;765;-85
2022/09/24 00:08:43;;;;;;;;;;;;;;;20.85;31.89;98082.69;5016212;28;1490;-84
2022/09/24 00:11:11;;;;;;;;;;;;;;;20.79;31.79;98080.38;5018762;28;1117;-81
2022/09/24 00:13:36;;;;;;;;;;;;;;;20.78;31.80;98073.13;5002067;28;799;-85
2022/09/24 00:16:03;;;;;;;;;;;;;;;21.04;31.25;98079.03;5018590;28;954;-85
2022/09/24 00:18:28;;;;;;;;;;;;;;;21.29;31.50;98084.88;5034301;28;921;-85
2022/09/24 00:20:54;;;;;;;;;;;;;;;21.30;31.26;98080.84;5017732;28;1915;-85
2022/09/24 00:23:19;;;;;;;;;;;;;;;21.21;31.27;98077.00;5034309;28;877;-85
2022/09/24 00:28:29;;;;;;;;;;;;;;;20.69;32.08;98080.59;5017772;28;740;-85
2022/09/24 00:31:14;;;;;;;;;;;;;;;21.07;31.32;98069.63;5018105;28;767;-84
2022/09/24 00:33:39;;;;;;;;;;;;;;;20.80;32.11;98076.31;5039202;28;1624;-85
2022/09/24 00:36:05;;;;;;;;;;;;;;;20.67;32.36;98077.41;5040649;28;1493;-85
2022/09/24 00:38:30;;;;;;;;;;;;;;;20.74;32.04;98074.44;5055125;28;1212;-85
2022/09/24 00:40:56;;;;;;;;;;;;;;;20.79;31.96;98079.59;5071657;28;1965;-85
2022/09/24 00:43:28;;;;;;;;;;;;;;;20.95;31.68;98071.13;5039808;28;862;-84
2022/09/24 00:49:29;;;;;;;;;;;;;;;21.46;31.38;98070.78;5039419;28;617;-85
2022/09/24 00:51:55;;;;;;;;;;;;;;;21.57;31.26;98074.13;5085093;28;1374;-85
2022/09/24 00:54:25;;;;;;;;;;;;;;;21.35;31.15;98061.72;5091377;28;842;-84
2022/09/24 00:56:51;;;;;;;;;;;;;;;20.88;32.13;98068.47;5075067;28;805;-85
2022/09/24 00:59:17;;;;;;;;;;;;;;;20.70;32.20;98070.88;5074254;28;885;-85
2022/09/24 01:01:43;;;;;;;;;;;;;;;20.87;31.86;98064.03;5091683;28;1975;-84
2022/09/24 01:04:08;;;;;;;;;;;;;;;21.04;31.59;98073.38;5091626;28;852;-84
2022/09/24 01:06:34;;;;;;;;;;;;;;;21.03;31.46;98066.09;5073567;28;1576;-84
2022/09/24 01:09:00;;;;;;;;;;;;;;;20.89;31.89;98063.63;5074470;28;1284;-84
2022/09/24 01:11:25;;;;;;;;;;;;;;;20.81;31.87;98066.59;5091292;28;734;-84
2022/09/24 01:14:10;;;;;;;;;;;;;;;20.92;32.34;98059.88;5058555;28;790;-84
2022/09/24 01:16:53;;;;;;;;;;;;;;;21.25;31.59;98067.19;5059038;28;884;-85
2022/09/24 01:19:37;;;;;;;;;;;;;;;21.53;31.15;98073.41;5058631;28;747;-85
2022/09/24 01:22:11;;;;;;;;;;;;;;;21.25;31.49;98072.84;5038221;28;1890;-85
2022/09/24 01:24:43;;;;;;;;;;;;;;;21.19;31.25;98057.66;5053767;28;865;-84
2022/09/24 01:27:11;;;;;;;;;;;;;;;20.93;31.82;98067.13;5054566;28;1379;-85
2022/09/24 01:29:52;;;;;;;;;;;;;;;20.86;32.07;98064.47;5070646;28;711;-84
2022/09/24 01:32:26;;;;;;;;;;;;;;;20.92;31.70;98066.34;5070986;28;742;-85
2022/09/24 01:34:54;;;;;;;;;;;;;;;20.79;32.27;98065.44;5040834;28;1477;-85
2022/09/24 01:37:21;;;;;;;;;;;;;;;20.67;32.51;98060.44;5090793;28;757;-84
2022/09/24 01:39:46;;;;;;;;;;;;;;;20.87;31.85;98068.88;5073107;28;1225;-85
2022/09/24 01:42:12;;;;;;;;;;;;;;;20.95;32.52;98056.19;5091072;28;1967;-84
2022/09/24 01:44:38;;;;;;;;;;;;;;;21.26;31.90;98053.84;5075946;28;859;-85
2022/09/24 01:47:05;;;;;;;;;;;;;;;21.24;31.65;98053.47;5059665;28;782;-84
2022/09/24 01:53:06;;;;;;;;;;;;;;;21.07;31.63;98066.81;5096445;28;793;-84
2022/09/24 01:55:33;;;;;;;;;;;;;;;20.76;32.32;98061.44;5063233;28;1137;-82
2022/09/24 01:58:09;;;;;;;;;;;;;;;20.85;32.11;98062.88;5079170;28;920;-85
2022/09/24 02:00:36;;;;;;;;;;;;;;;20.74;32.20;98061.09;5079481;28;1910;-84
2022/09/24 02:03:12;;;;;;;;;;;;;;;20.65;32.28;98063.72;5096091;28;994;-84
2022/09/24 02:05:43;;;;;;;;;;;;;;;20.91;31.81;98058.31;5094604;28;1536;-83
2022/09/24 02:08:21;;;;;;;;;;;;;;;20.97;31.90;98073.50;5095513;28;829;-85
2022/09/24 02:10:49;;;;;;;;;;;;;;;20.99;32.49;98060.53;5095974;28;811;-84
2022/09/24 02:13:14;;;;;;;;;;;;;;;21.23;31.87;98069.66;5094436;28;1426;-84
2022/09/24 02:15:41;;;;;;;;;;;;;;;21.08;31.88;98068.41;5062121;28;1493;-84
2022/09/24 02:18:07;;;;;;;;;;;;;;;21.03;32.00;98068.91;5018767;28;967;-84
2022/09/24 02:20:32;;;;;;;;;;;;;;;20.69;32.51;98061.63;5035463;28;1898;-85
2022/09/24 02:22:58;;;;;;;;;;;;;;;20.90;31.80;98063.16;5035372;28;933;-85
2022/09/24 02:25:30;;;;;;;;;;;;;;;20.83;32.25;98073.81;5035518;28;728;-85
2022/09/24 02:27:56;;;;;;;;;;;;;;;20.87;32.01;98069.69;5018772;28;832;-84
2022/09/24 02:30:21;;;;;;;;;;;;;;;21.10;31.73;98071.59;5033669;28;1485;-85
2022/09/24 02:32:46;;;;;;;;;;;;;;;21.19;31.78;98074.63;5002036;28;1481;-85
2022/09/24 02:38:45;;;;;;;;;;;;;;;21.19;31.68;98074.63;4995595;28;878;-84
2022/09/24 02:41:10;;;;;;;;;;;;;;;21.01;31.73;98074.22;5012425;28;1894;-84
2022/09/24 02:43:36;;;;;;;;;;;;;;;20.96;31.83;98075.53;4997549;28;1567;-84
2022/09/24 02:46:01;;;;;;;;;;;;;;;20.95;31.69;98065.47;5015162;28;1587;-82
2022/09/24 02:48:27;;;;;;;;;;;;;;;21.03;31.65;98071.75;4982774;28;1119;-85
2022/09/24 02:50:52;;;;;;;;;;;;;;;20.92;32.32;98065.53;4983697;28;1227;-85
2022/09/24 02:53:18;;;;;;;;;;;;;;;21.09;32.39;98064.34;4982776;28;1150;-84
2022/09/24 02:55:43;;;;;;;;;;;;;;;21.51;31.32;98073.88;5015536;28;877;-85
2022/09/24 02:58:09;;;;;;;;;;;;;;;21.18;31.62;98067.34;5009151;28;1613;-85
2022/09/24 03:00:34;;;;;;;;;;;;;;;21.00;31.71;98067.00;5031404;28;1971;-85
2022/09/24 03:03:00;;;;;;;;;;;;;;;20.98;31.54;98075.09;5015248;28;715;-85
2022/09/24 03:05:25;;;;;;;;;;;;;;;20.84;31.88;98075.44;5022820;28;937;-84
2022/09/24 03:07:51;;;;;;;;;;;;;;;20.59;31.97;98082.44;5056240;28;1131;-85
2022/09/24 03:10:16;;;;;;;;;;;;;;;20.64;32.27;98076.25;5056132;28;755;-85
2022/09/24 03:12:42;;;;;;;;;;;;;;;20.80;32.60;98093.28;5055533;28;1508;-84
2022/09/24 03:15:08;;;;;;;;;;;;;;;21.13;31.54;98090.50;5055922;28;1283;-84
2022/09/24 03:17:33;;;;;;;;;;;;;;;21.24;31.36;98088.25;5073313;28;750;-85
2022/09/24 03:19:59;;;;;;;;;;;;;;;21.04;31.50;98090.34;5071397;28;1686;-85
2022/09/24 03:22:24;;;;;;;;;;;;;;;20.74;31.83;98091.41;5040710;28;1975;-85
2022/09/24 03:24:50;;;;;;;;;;;;;;;20.74;31.39;98095.03;5059632;28;1245;-85
2022/09/24 03:27:15;;;;;;;;;;;;;;;20.85;31.45;98094.00;5094173;28;727;-84
2022/09/24 03:32:25;;;;;;;;;;;;;;;20.91;31.44;98104.34;5060515;28;759;-85
2022/09/24 03:34:51;;;;;;;;;;;;;;;21.23;30.72;98106.44;5076291;28;1123;-83
2022/09/24 03:37:16;;;;;;;;;;;;;;;21.35;30.52;98104.19;5060038;28;826;-85
2022/09/24 03:39:42;;;;;;;;;;;;;;;21.01;30.87;98102.53;5060540;28;1211;-85
2022/09/24 03:42:07;;;;;;;;;;;;;;;20.87;30.94;98108.50;5092181;28;1910;-85
2022/09/24 03:44:33;;;;;;;;;;;;;;;20.73;30.97;98101.91;5059236;28;1114;-85
2022/09/24 03:46:58;;;;;;;;;;;;;;;20.92;31.11;98107.97;5078267;28;933;-85
2022/09/24 03:49:24;;;;;;;;;;;;;;;21.14;30.65;98116.75;5078369;28;769;-85
2022/09/24 03:51:50;;;;;;;;;;;;;;;21.32;30.45;98106.66;5094649;28;1505;-85
2022/09/24 03:54:15;;;;;;;;;;;;;;;21.10;30.32;98111.22;5061545;28;1236;-85
2022/09/24 03:56:41;;;;;;;;;;;;;;;20.96;30.45;98117.19;5078549;28;889;-85
2022/09/24 03:59:08;;;;;;;;;;;;;;;20.74;30.65;98112.00;5094972;28;742;-85
2022/09/24 04:01:36;;;;;;;;;;;;;;;20.60;30.76;98117.94;5094898;28;1971;-85
2022/09/24 04:04:02;;;;;;;;;;;;;;;20.78;30.48;98107.06;5061021;28;857;-85
2022/09/24 04:06:27;;;;;;;;;;;;;;;21.35;30.17;98115.50;5095099;28;794;-84
2022/09/24 04:08:53;;;;;;;;;;;;;;;21.49;30.12;98115.97;5078281;28;777;-85
2022/09/24 04:11:18;;;;;;;;;;;;;;;21.47;30.01;98117.66;5045025;28;1182;-85
2022/09/24 04:13:44;;;;;;;;;;;;;;;21.37;29.72;98121.53;5094295;28;896;-85
2022/09/24 04:16:09;;;;;;;;;;;;;;;20.86;30.66;98124.66;5044924;28;1062;-84
2022/09/24 04:18:35;;;;;;;;;;;;;;;20.90;30.51;98133.06;5045920;28;1103;-85
2022/09/24 04:21:00;;;;;;;;;;;;;;;20.81;30.60;98134.44;5060022;28;1910;-85
2022/09/24 04:23:26;;;;;;;;;;;;;;;21.05;30.55;98137.19;5058162;28;821;-84
2022/09/24 04:25:53;;;;;;;;;;;;;;;21.16;30.29;98129.25;5059927;28;727;-85
2022/09/24 04:28:18;;;;;;;;;;;;;;;21.40;30.21;98134.78;5090997;28;1137;-84
2022/09/24 04:30:44;;;;;;;;;;;;;;;21.11;30.09;98135.44;5041241;28;1273;-84
2022/09/24 04:33:09;;;;;;;;;;;;;;;21.01;30.46;98142.13;5067129;28;1418;-85
2022/09/24 04:35:35;;;;;;;;;;;;;;;20.90;30.51;98147.22;5078801;28;1225;-84
2022/09/24 04:38:00;;;;;;;;;;;;;;;20.94;31.10;98153.59;5069005;28;1363;-84
2022/09/24 04:40:26;;;;;;;;;;;;;;;21.14;30.35;98157.19;5069015;28;1977;-84
2022/09/24 04:42:51;;;;;;;;;;;;;;;21.43;30.32;98153.72;5071792;28;1272;-84
2022/09/24 04:45:19;;;;;;;;;;;;;;;21.27;29.98;98160.94;5054579;28;1352;-84
2022/09/24 04:47:45;;;;;;;;;;;;;;;21.24;30.27;98173.16;5060941;28;837;-85
2022/09/24 04:50:11;;;;;;;;;;;;;;;21.12;30.32;98165.31;5060667;28;733;-84
2022/09/24 04:52:37;;;;;;;;;;;;;;;20.93;30.42;98174.63;5077043;28;740;-84
2022/09/24 04:55:02;;;;;;;;;;;;;;;20.74;31.06;98179.84;5060215;28;880;-84
2022/09/24 04:57:28;;;;;;;;;;;;;;;20.67;31.43;98179.97;5060752;28;842;-84
2022/09/24 04:59:53;;;;;;;;;;;;;;;20.95;31.31;98172.97;5060261;28;1314;-85
2022/09/24 05:02:19;;;;;;;;;;;;;;;21.24;30.63;98170.31;5077309;28;1914;-84
2022/09/24 05:04:44;;;;;;;;;;;;;;;21.47;30.39;98174.28;5042667;28;822;-85
2022/09/24 05:07:10;;;;;;;;;;;;;;;20.98;30.91;98176.94;5055071;28;949;-85
2022/09/24 05:09:35;;;;;;;;;;;;;;;20.94;30.88;98176.22;5038001;28;762;-85
2022/09/24 05:12:01;;;;;;;;;;;;;;;20.91;30.71;98177.88;5039565;28;762;-84
2022/09/24 05:14:27;;;;;;;;;;;;;;;20.57;31.47;98175.34;5040762;28;1162;-84
2022/09/24 05:16:52;;;;;;;;;;;;;;;20.65;31.36;98171.16;5068245;28;1368;-85
2022/09/24 05:19:18;;;;;;;;;;;;;;;21.12;30.92;98182.28;5049715;28;1277;-85
2022/09/24 05:21:43;;;;;;;;;;;;;;;21.20;30.98;98166.75;5070863;28;1995;-85
2022/09/24 05:24:08;;;;;;;;;;;;;;;21.31;30.26;98173.00;5067568;28;1245;-84
2022/09/24 05:29:18;;;;;;;;;;;;;;;20.91;30.75;98177.09;5067631;28;1261;-86
2022/09/24 05:31:43;;;;;;;;;;;;;;;20.78;31.24;98186.25;5079100;28;1291;-85
2022/09/24 05:34:09;;;;;;;;;;;;;;;20.84;31.20;98185.75;5084564;28;1354;-84
2022/09/24 05:36:35;;;;;;;;;;;;;;;20.67;31.48;98185.63;5084074;28;1252;-85
2022/09/24 05:39:00;;;;;;;;;;;;;;;21.03;30.87;98179.25;5084500;28;1351;-85
2022/09/24 05:41:26;;;;;;;;;;;;;;;21.08;31.37;98192.88;5066589;28;1974;-84
2022/09/24 05:43:52;;;;;;;;;;;;;;;21.24;30.82;98190.13;5051116;28;1353;-85
2022/09/24 05:46:17;;;;;;;;;;;;;;;21.31;30.47;98192.81;5060698;28;1400;-84
2022/09/24 05:48:43;;;;;;;;;;;;;;;20.94;30.90;98193.22;5056316;28;1204;-85
2022/09/24 05:51:08;;;;;;;;;;;;;;;20.76;31.39;98200.00;5048294;28;1268;-84
2022/09/24 05:53:34;;;;;;;;;;;;;;;20.83;31.19;98210.41;5055587;28;1253;-85
2022/09/24 05:55:59;;;;;;;;;;;;;;;20.88;31.10;98203.41;5057997;28;1228;-85
2022/09/24 05:58:25;;;;;;;;;;;;;;;20.89;31.17;98207.84;5057345;28;1225;-85
2022/09/24 06:00:50;;;;;;;;;;;;;;;21.23;31.09;98216.00;5057129;28;1983;-84
2022/09/24 06:03:16;;;;;;;;;;;;;;;21.31;30.46;98211.84;5056095;28;1296;-85
2022/09/24 06:05:42;;;;;;;;;;;;;;;21.32;30.45;98219.88;5056165;28;1394;-84
2022/09/24 06:08:08;;;;;;;;;;;;;;;21.05;30.95;98227.72;5064239;28;1272;-85
2022/09/24 06:10:33;;;;;;;;;;;;;;;21.10;30.93;98230.03;5056187;28;1265;-84
2022/09/24 06:12:58;;;;;;;;;;;;;;;20.99;30.82;98240.78;5047990;28;1132;-85
2022/09/24 06:15:26;;;;;;;;;;;;;;;21.02;30.76;98239.91;5072739;28;1268;-85
2022/09/24 06:17:54;;;;;;;;;;;;;;;21.01;31.39;98249.63;5075074;28;1457;-85
2022/09/24 06:20:20;;;;;;;;;;;;;;;21.22;30.68;98243.50;5057237;28;1225;-85
2022/09/24 06:22:46;;;;;;;;;;;;;;;21.30;30.24;98247.03;5075092;28;1898;-85
2022/09/24 06:25:12;;;;;;;;;;;;;;;21.29;30.38;98246.19;5092077;28;711;-85
2022/09/24 06:27:37;;;;;;;;;;;;;;;20.91;30.90;98253.47;5075891;28;1130;-85
2022/09/24 06:30:03;;;;;;;;;;;;;;;20.88;31.13;98251.50;5092447;28;762;-84
2022/09/24 06:32:29;;;;;;;;;;;;;;;20.64;31.31;98247.94;5058707;28;849;-85
2022/09/24 06:34:54;;;;;;;;;;;;;;;20.95;31.13;98257.03;5025514;28;1257;-85
2022/09/24 06:37:20;;;;;;;;;;;;;;;20.87;31.68;98249.91;5058898;28;885;-84
2022/09/24 06:39:45;;;;;;;;;;;;;;;21.30;30.76;98252.69;5041723;28;1105;-84
2022/09/24 06:42:11;;;;;;;;;;;;;;;21.32;30.80;98253.84;5041551;28;1961;-85
2022/09/24 06:44:37;;;;;;;;;;;;;;;21.07;30.88;98262.03;5075583;28;1251;-85
2022/09/24 06:47:03;;;;;;;;;;;;;;;20.98;30.91;98261.78;5078904;28;825;-85
2022/09/24 06:49:28;;;;;;;;;;;;;;;20.93;31.01;98265.13;5063116;28;777;-85
2022/09/24 06:51:54;;;;;;;;;;;;;;;20.85;31.13;98258.03;5059093;28;806;-85
2022/09/24 06:54:19;;;;;;;;;;;;;;;20.96;31.11;98267.09;5058780;28;810;-84
2022/09/24 06:56:45;;;;;;;;;;;;;;;21.14;31.06;98270.38;5076076;28;786;-85
2022/09/24 06:59:11;;;;;;;;;;;;;;;21.43;30.81;98266.97;5058288;28;902;-85
2022/09/24 07:01:36;;;;;;;;;;;;;;;21.24;30.67;98269.38;5058611;28;1905;-84
2022/09/24 07:04:01;;;;;;;;;;;;;;;21.11;30.84;98268.41;5057751;28;936;-85
2022/09/24 07:07:28;;;;;;;;;;;;;;;20.73;31.54;98271.59;5070511;28;750;-85
2022/09/24 07:09:12;;;;;;;;;;;;;;;20.71;31.37;98271.19;5037633;28;738;-85
2022/09/24 07:11:38;;;;;;;;;;;;;;;20.79;31.21;98272.69;5036782;28;1233;-85
2022/09/24 07:14:04;;;;;;;;;;;;;;;20.97;31.48;98271.53;5070703;28;1363;-84
2022/09/24 07:16:29;;;;;;;;;;;;;;;21.10;30.89;98275.31;5057702;28;750;-85
2022/09/24 07:18:54;;;;;;;;;;;;;;;21.24;30.95;98274.19;5055629;28;1256;-85
2022/09/24 07:21:20;;;;;;;;;;;;;;;20.89;31.25;98282.19;5039547;28;2031;-85
2022/09/24 07:23:46;;;;;;;;;;;;;;;20.74;31.30;98276.00;5056928;28;754;-85
2022/09/24 07:26:11;;;;;;;;;;;;;;;20.96;30.75;98275.59;5057413;28;881;-85
2022/09/24 07:28:37;;;;;;;;;;;;;;;20.91;30.91;98279.72;5055182;28;775;-84
2022/09/24 07:31:02;;;;;;;;;;;;;;;20.72;31.10;98277.66;5039666;28;1185;-85
2022/09/24 07:33:29;;;;;;;;;;;;;;;20.93;31.04;98282.09;5055268;28;766;-85
2022/09/24 07:35:55;;;;;;;;;;;;;;;21.25;30.31;98285.09;5057296;28;714;-85
2022/09/24 07:38:21;;;;;;;;;;;;;;;21.37;30.11;98282.88;5056510;28;747;-84
2022/09/24 07:40:46;;;;;;;;;;;;;;;21.10;30.74;98283.81;5057066;28;2326;-84
2022/09/24 07:43:13;;;;;;;;;;;;;;;21.03;30.39;98275.44;5055773;28;906;-84
2022/09/24 07:45:39;;;;;;;;;;;;;;;20.86;30.69;98282.25;5054113;28;950;-85
2022/09/24 07:48:04;;;;;;;;;;;;;;;20.81;30.67;98275.84;5054468;28;847;-85
2022/09/24 07:50:30;;;;;;;;;;;;;;;20.74;30.74;98269.56;5054526;28;766;-85
2022/09/24 07:52:56;;;;;;;;;;;;;;;20.94;30.98;98283.72;5038236;28;841;-85
2022/09/24 07:55:22;;;;;;;;;;;;;;;21.22;30.11;98280.31;5037878;28;772;-87
2022/09/24 07:57:48;;;;;;;;;;;;;;;21.41;29.75;98289.25;5037923;28;751;-86
2022/09/24 08:00:14;;;;;;;;;;;;;;;21.08;30.13;98286.25;5014284;28;863;-85
2022/09/24 08:02:39;;;;;;;;;;;;;;;20.71;30.63;98293.03;4994819;28;1987;-85
2022/09/24 08:05:05;;;;;;;;;;;;;;;20.80;30.55;98285.56;4996298;28;866;-86
2022/09/24 08:07:30;;;;;;;;;;;;;;;20.80;30.68;98296.88;4982754;28;824;-86
2022/09/24 08:09:56;;;;;;;;;;;;;;;20.73;31.23;98285.72;4998732;28;1284;-85
2022/09/24 08:12:23;;;;;;;;;;;;;;;21.07;30.33;98295.97;4979649;28;902;-86
2022/09/24 08:14:50;;;;;;;;;;;;;;;21.32;29.92;98296.28;4979401;28;865;-86
2022/09/24 08:17:16;;;;;;;;;;;;;;;21.05;30.11;98296.41;4994627;28;858;-86
2022/09/24 08:19:42;;;;;;;;;;;;;;;20.89;30.35;98295.53;5018323;28;1166;-86
2022/09/24 08:22:07;;;;;;;;;;;;;;;20.81;30.67;98292.03;5002151;28;1886;-86
2022/09/24 08:24:33;;;;;;;;;;;;;;;20.65;30.72;98287.06;5002164;28;1219;-86
2022/09/24 08:26:59;;;;;;;;;;;;;;;21.09;30.09;98290.69;5018801;28;1167;-86
2022/09/24 08:29:24;;;;;;;;;;;;;;;21.26;29.81;98298.03;5018348;28;886;-86
2022/09/24 08:31:50;;;;;;;;;;;;;;;21.17;29.83;98297.00;5018788;28;941;-86
2022/09/24 08:34:18;;;;;;;;;;;;;;;20.89;30.35;98275.75;5018061;28;848;-86
2022/09/24 08:36:44;;;;;;;;;;;;;;;20.86;30.55;98287.91;5003885;28;857;-86
2022/09/24 08:39:12;;;;;;;;;;;;;;;20.77;30.47;98280.78;5037808;28;1078;-85
2022/09/24 08:41:38;;;;;;;;;;;;;;;20.78;30.40;98288.06;5037833;28;1979;-86
2022/09/24 08:44:10;;;;;;;;;;;;;;;20.84;30.93;98279.06;5086961;28;1000;-86
2022/09/24 08:49:26;;;;;;;;;;;;;;;21.27;29.58;98279.78;5063425;28;782;-86
2022/09/24 08:51:57;;;;;;;;;;;;;;;21.00;30.27;98273.50;5041112;28;1139;-86
2022/09/24 08:54:23;;;;;;;;;;;;;;;20.81;30.45;98278.69;5041146;28;1334;-85
2022/09/24 08:56:50;;;;;;;;;;;;;;;20.68;30.62;98277.75;5024419;28;962;-86
2022/09/24 08:59:29;;;;;;;;;;;;;;;20.70;30.79;98275.25;5057354;28;764;-86
2022/09/24 09:02:01;;;;;;;;;;;;;;;21.07;29.97;98270.50;5057910;28;1965;-86
2022/09/24 09:04:34;;;;;;;;;;;;;;;21.38;29.47;98275.97;5040652;28;704;-86
2022/09/24 09:07:05;;;;;;;;;;;;;;;21.11;29.81;98265.59;5041033;28;809;-86
2022/09/24 09:13:09;;;;;;;;;;;;;;;20.71;30.64;98264.75;5057567;28;844;-86
2022/09/24 09:15:35;;;;;;;;;;;;;;;20.62;30.60;98264.50;5037548;28;1333;-86
2022/09/24 09:18:11;;;;;;;;;;;;;;;21.03;29.85;98270.56;5020817;28;964;-86
2022/09/24 09:20:39;;;;;;;;;;;;;;;21.40;29.45;98262.16;5021493;28;1961;-86
2022/09/24 09:23:15;;;;;;;;;;;;;;;21.05;29.80;98275.81;5015919;28;1148;-86
2022/09/24 09:25:42;;;;;;;;;;;;;;;20.91;29.99;98273.25;5040629;28;855;-86
2022/09/24 09:28:14;;;;;;;;;;;;;;;20.81;30.05;98253.22;5023745;28;1151;-86
2022/09/24 09:30:44;;;;;;;;;;;;;;;21.03;29.89;98264.13;5020515;28;836;-86
2022/09/24 09:33:29;;;;;;;;;;;;;;;21.29;29.43;98260.34;5003285;28;1098;-85
2022/09/24 09:36:04;;;;;;;;;;;;;;;21.16;29.48;98267.91;5036517;28;1078;-86
2022/09/24 09:38:35;;;;;;;;;;;;;;;20.98;29.78;98258.97;5035516;28;1490;-85
2022/09/24 09:41:12;;;;;;;;;;;;;;;20.75;30.23;98259.84;5036523;28;2089;-86
2022/09/24 09:43:39;;;;;;;;;;;;;;;20.63;30.55;98260.47;5036165;28;920;-85
2022/09/24 09:46:19;;;;;;;;;;;;;;;20.71;30.41;98251.41;5026972;28;843;-86
2022/09/24 09:48:46;;;;;;;;;;;;;;;20.64;30.41;98253.59;5039473;28;738;-86
2022/09/24 09:51:18;;;;;;;;;;;;;;;21.07;29.69;98262.03;5040661;28;826;-86
2022/09/24 09:53:59;;;;;;;;;;;;;;;21.41;29.30;98255.28;5023351;28;1121;-86
2022/09/24 09:56:26;;;;;;;;;;;;;;;21.01;29.83;98258.09;5040852;28;818;-85
2022/09/24 09:58:59;;;;;;;;;;;;;;;20.91;29.81;98268.41;5040196;28;1436;-86
2022/09/24 10:01:30;;;;;;;;;;;;;;;20.68;30.37;98254.31;5040491;28;1914;-86
2022/09/24 10:03:56;;;;;;;;;;;;;;;20.81;30.10;98264.53;5040528;28;790;-86
2022/09/24 10:06:22;;;;;;;;;;;;;;;20.89;29.96;98253.13;5041475;28;872;-87
2022/09/24 10:08:48;;;;;;;;;;;;;;;21.26;29.38;98254.78;5023009;28;851;-86
2022/09/24 10:11:13;;;;;;;;;;;;;;;21.39;29.06;98260.59;5041164;28;838;-85
2022/09/24 10:13:39;;;;;;;;;;;;;;;21.38;29.07;98253.31;5052594;28;1036;-84
2022/09/24 10:16:04;;;;;;;;;;;;;;;21.12;29.62;98261.50;5054736;28;1220;-84
2022/09/24 10:18:31;;;;;;;;;;;;;;;20.99;29.86;98257.75;5042011;28;1219;-85
2022/09/24 10:20:56;;;;;;;;;;;;;;;20.87;30.02;98245.03;5056684;28;1971;-84
2022/09/24 10:23:23;;;;;;;;;;;;;;;20.89;29.81;98253.13;5055525;28;1270;-84
2022/09/24 10:25:50;;;;;;;;;;;;;;;20.86;29.92;98256.78;5073368;28;900;-84
2022/09/24 10:31:02;;;;;;;;;;;;;;;20.76;29.90;98250.91;5070020;28;739;-85
2022/09/24 10:33:34;;;;;;;;;;;;;;;20.78;30.06;98256.94;5074859;28;915;-85
2022/09/24 10:36:04;;;;;;;;;;;;;;;20.79;30.26;98255.72;5075879;28;762;-85
2022/09/24 10:38:30;;;;;;;;;;;;;;;21.22;29.28;98254.03;5074975;28;1044;-85
2022/09/24 10:40:56;;;;;;;;;;;;;;;21.44;29.03;98248.75;5059215;28;1914;-85
2022/09/24 10:43:22;;;;;;;;;;;;;;;20.93;29.67;98253.81;5075131;28;936;-85
2022/09/24 10:45:59;;;;;;;;;;;;;;;20.92;29.76;98246.56;5059343;28;719;-84
2022/09/24 10:48:25;;;;;;;;;;;;;;;20.65;30.15;98249.53;5075259;28;864;-85
2022/09/24 10:51:10;;;;;;;;;;;;;;;20.82;29.92;98248.38;5058931;28;744;-84
2022/09/24 10:53:38;;;;;;;;;;;;;;;21.01;29.96;98250.41;5058378;28;882;-85
2022/09/24 10:56:24;;;;;;;;;;;;;;;21.39;28.86;98257.75;5076097;28;793;-85
2022/09/24 10:58:55;;;;;;;;;;;;;;;21.25;29.27;98245.50;5074736;28;1051;-84
2022/09/24 11:01:21;;;;;;;;;;;;;;;21.10;29.68;98252.69;5075775;28;1925;-86
2022/09/24 11:03:49;;;;;;;;;;;;;;;20.87;29.62;98247.06;5066312;28;888;-86
2022/09/24 11:06:18;;;;;;;;;;;;;;;20.74;29.87;98246.94;5038234;28;742;-85
2022/09/24 11:08:46;;;;;;;;;;;;;;;20.69;30.09;98251.06;5053056;28;1102;-85
2022/09/24 11:11:18;;;;;;;;;;;;;;;20.67;30.06;98242.19;5037242;28;1021;-85
2022/09/24 11:13:44;;;;;;;;;;;;;;;21.07;29.46;98247.88;5052991;28;1118;-85
2022/09/24 11:16:34;;;;;;;;;;;;;;;21.30;28.93;98228.03;5038113;28;854;-85
2022/09/24 11:19:00;;;;;;;;;;;;;;;20.99;29.45;98237.97;5052997;28;1260;-85
2022/09/24 11:21:28;;;;;;;;;;;;;;;20.94;29.50;98230.78;5069863;28;1896;-85
2022/09/24 11:24:03;;;;;;;;;;;;;;;20.96;29.59;98235.97;5069568;28;739;-85
2022/09/24 11:26:47;;;;;;;;;;;;;;;20.87;29.89;98233.72;5053901;28;1254;-85
2022/09/24 11:29:18;;;;;;;;;;;;;;;20.64;30.23;98226.09;5037774;28;744;-85
2022/09/24 11:31:44;;;;;;;;;;;;;;;20.70;30.00;98223.56;5037694;28;707;-86
2022/09/24 11:34:09;;;;;;;;;;;;;;;20.49;30.20;98219.13;5036804;28;1098;-85
2022/09/24 11:40:10;;;;;;;;;;;;;;;21.22;29.09;98226.53;5039416;28;1043;-86
2022/09/24 11:43:05;;;;;;;;;;;;;;;20.99;29.25;98220.97;5079355;28;1905;-85
2022/09/24 11:45:36;;;;;;;;;;;;;;;21.10;29.07;98217.94;5019330;28;1143;-85
2022/09/24 11:48:05;;;;;;;;;;;;;;;20.91;29.60;98217.50;5018971;28;858;-86
2022/09/24 11:50:44;;;;;;;;;;;;;;;21.10;29.30;98207.41;5019482;28;892;-85
2022/09/24 11:53:14;;;;;;;;;;;;;;;21.13;29.16;98211.38;5018687;28;937;-85
2022/09/24 11:55:48;;;;;;;;;;;;;;;21.40;28.66;98214.06;5003535;28;925;-85
2022/09/24 11:58:13;;;;;;;;;;;;;;;21.49;28.40;98217.09;5002698;28;1309;-85
2022/09/24 12:00:58;;;;;;;;;;;;;;;21.23;28.80;98213.97;5019605;28;736;-85
2022/09/24 12:03:26;;;;;;;;;;;;;;;21.17;28.93;98215.72;5018777;28;1187;-86
2022/09/24 12:05:55;;;;;;;;;;;;;;;20.89;29.52;98216.34;5019482;28;716;-86
2022/09/24 12:08:20;;;;;;;;;;;;;;;20.89;29.48;98224.81;5002679;28;1207;-85
2022/09/24 12:10:51;;;;;;;;;;;;;;;20.76;29.45;98216.97;5019602;28;889;-86
2022/09/24 12:13:35;;;;;;;;;;;;;;;20.85;29.50;98202.25;4991649;28;967;-86
2022/09/24 12:16:01;;;;;;;;;;;;;;;21.24;28.77;98206.28;4980492;28;1115;-86
2022/09/24 12:18:49;;;;;;;;;;;;;;;21.29;28.79;98220.72;4979480;28;1124;-85
2022/09/24 12:21:16;;;;;;;;;;;;;;;21.05;29.08;98219.22;4989441;28;1910;-86
2022/09/24 12:23:43;;;;;;;;;;;;;;;20.86;29.57;98220.81;5017987;28;807;-86
2022/09/24 12:26:11;;;;;;;;;;;;;;;20.72;29.89;98216.25;5003644;28;801;-86
2022/09/24 12:34:44;;;;;;;;;;;;;;;21.15;29.23;98221.03;5018947;28;915;-85
2022/09/24 12:37:10;;;;;;;;;;;;;;;21.18;28.87;98220.16;5002970;28;1174;-86
2022/09/24 12:39:37;;;;;;;;;;;;;;;20.97;29.42;98220.59;5017939;28;1273;-84
2022/09/24 12:42:06;;;;;;;;;;;;;;;20.89;29.17;98216.34;5018461;28;1907;-86
2022/09/24 12:44:34;;;;;;;;;;;;;;;20.95;29.18;98226.69;5010290;28;921;-86
2022/09/24 12:47:00;;;;;;;;;;;;;;;20.79;29.53;98216.13;5018927;28;1135;-86
2022/09/24 12:49:25;;;;;;;;;;;;;;;21.21;28.79;98213.63;5001522;28;1110;-85
2022/09/24 12:52:00;;;;;;;;;;;;;;;21.46;28.33;98221.59;5034432;28;769;-86
2022/09/24 12:54:29;;;;;;;;;;;;;;;21.17;28.83;98229.88;5001516;28;965;-86
2022/09/24 12:57:13;;;;;;;;;;;;;;;20.89;29.26;98224.81;5002350;28;1166;-85
2022/09/24 13:00:04;;;;;;;;;;;;;;;20.87;29.25;98233.72;5001416;28;1138;-85
2022/09/24 13:02:41;;;;;;;;;;;;;;;20.71;29.52;98231.63;5038889;28;1902;-86
2022/09/24 13:05:27;;;;;;;;;;;;;;;20.76;29.33;98222.63;5037611;28;907;-86
2022/09/24 13:07:56;;;;;;;;;;;;;;;21.00;29.00;98229.03;5054429;28;1237;-85
2022/09/24 13:10:28;;;;;;;;;;;;;;;21.36;28.48;98219.00;5037371;28;830;-86
2022/09/24 13:12:54;;;;;;;;;;;;;;;21.21;28.80;98224.94;5053898;28;956;-86
2022/09/24 13:15:27;;;;;;;;;;;;;;;21.20;28.80;98229.03;5034235;28;1180;-86
2022/09/24 13:17:59;;;;;;;;;;;;;;;21.02;29.19;98240.69;5033684;28;821;-85
2022/09/24 13:20:25;;;;;;;;;;;;;;;21.03;28.92;98236.63;5017591;28;853;-85
2022/09/24 13:23:15;;;;;;;;;;;;;;;20.89;29.14;98230.47;5017706;28;1905;-86
2022/09/24 13:25:40;;;;;;;;;;;;;;;20.84;29.42;98228.16;4978372;28;1014;-86
2022/09/24 13:28:19;;;;;;;;;;;;;;;21.09;28.94;98231.28;4961875;28;974;-86
2022/09/24 13:30:44;;;;;;;;;;;;;;;21.32;28.56;98225.53;4978233;28;917;-86
2022/09/24 13:33:15;;;;;;;;;;;;;;;21.07;28.87;98230.91;4961813;28;1064;-85
2022/09/24 13:35:49;;;;;;;;;;;;;;;20.89;29.38;98236.13;4978047;28;989;-84
2022/09/24 13:38:16;;;;;;;;;;;;;;;20.68;29.66;98232.50;4959430;28;856;-85
2022/09/24 13:40:42;;;;;;;;;;;;;;;20.61;29.78;98226.97;4975962;28;1313;-86
2022/09/24 13:43:30;;;;;;;;;;;;;;;20.69;29.70;98219.94;4973973;28;1914;-85
2022/09/24 13:45:59;;;;;;;;;;;;;;;21.12;28.64;98216.25;5004345;28;855;-85